sensor_id;sensor_type;location;lat;lon;timestamp;P1;durP1;ratioP1;P2;durP2;ratioP2
52210;SDS011;38179;52.756;6.906;2022-10-22T00:02:07;20.77;;;18.77;;
52210;SDS011;38179;52.756;6.906;2022-10-22T00:04:33;19.80;;;17.92;;
52210;SDS011;38179;52.756;6.906;2022-10-22T00:06:59;20.83;;;18.92;;
52210;SDS011;38179;52.756;6.906;2022-10-22T00:09:25;20.08;;;18.38;;
52210;SDS011;38179;52.756;6.906;2022-10-22T00:11:51;20.60;;;18.77;;
52210;SDS011;38179;52.756;6.906;2022-10-22T00:14:19;21.55;;;19.52;;
52210;SDS011;38179;52.756;6.906;2022-10-22T00:16:45;20.55;;;18.63;;
52210;SDS011;38179;52.756;6.906;2022-10-22T00:19:11;20.95;;;18.98;;
52210;SDS011;38179;52.756;6.906;2022-10-22T00:21:37;20.67;;;18.67;;
52210;SDS011;38179;52.756;6.906;2022-10-22T00:24:03;21.98;;;19.30;;
52210;SDS011;38179;52.756;6.906;2022-10-22T00:26:29;21.80;;;19.80;;
52210;SDS011;38179;52.756;6.906;2022-10-22T00:28:55;20.73;;;18.92;;
52210;SDS011;38179;52.756;6.906;2022-10-22T00:31:21;20.38;;;18.33;;
52210;SDS011;38179;52.756;6.906;2022-10-22T00:33:47;20.35;;;18.48;;
52210;SDS011;38179;52.756;6.906;2022-10-22T00:36:13;20.98;;;19.10;;
52210;SDS011;38179;52.756;6.906;2022-10-22T00:38:40;20.35;;;18.55;;
52210;SDS011;38179;52.756;6.906;2022-10-22T00:41:07;21.02;;;18.85;;
52210;SDS011;38179;52.756;6.906;2022-10-22T00:43:33;21.42;;;19.15;;
52210;SDS011;38179;52.756;6.906;2022-10-22T00:46:17;20.52;;;18.60;;
52210;SDS011;38179;52.756;6.906;2022-10-22T00:48:43;20.48;;;18.65;;
52210;SDS011;38179;52.756;6.906;2022-10-22T00:51:09;20.55;;;18.55;;
52210;SDS011;38179;52.756;6.906;2022-10-22T00:53:36;21.02;;;18.92;;
52210;SDS011;38179;52.756;6.906;2022-10-22T00:56:04;20.85;;;18.67;;
52210;SDS011;38179;52.756;6.906;2022-10-22T00:58:32;19.30;;;17.50;;
52210;SDS011;38179;52.756;6.906;2022-10-22T01:01:00;20.95;;;18.85;;
52210;SDS011;38179;52.756;6.906;2022-10-22T01:03:27;19.02;;;17.13;;
52210;SDS011;38179;52.756;6.906;2022-10-22T01:08:44;19.73;;;17.88;;
52210;SDS011;38179;52.756;6.906;2022-10-22T01:14:22;19.90;;;18.08;;
52210;SDS011;38179;52.756;6.906;2022-10-22T01:22:17;18.50;;;16.80;;
52210;SDS011;38179;52.756;6.906;2022-10-22T01:25:16;20.27;;;18.35;;
52210;SDS011;38179;52.756;6.906;2022-10-22T01:30:38;19.80;;;17.90;;
52210;SDS011;38179;52.756;6.906;2022-10-22T01:33:06;18.65;;;16.95;;
52210;SDS011;38179;52.756;6.906;2022-10-22T01:35:36;18.80;;;17.10;;
52210;SDS011;38179;52.756;6.906;2022-10-22T01:38:07;19.40;;;17.60;;
52210;SDS011;38179;52.756;6.906;2022-10-22T01:40:37;21.70;;;17.67;;
52210;SDS011;38179;52.756;6.906;2022-10-22T01:43:06;19.27;;;17.35;;
52210;SDS011;38179;52.756;6.906;2022-10-22T01:45:37;18.80;;;17.17;;
52210;SDS011;38179;52.756;6.906;2022-10-22T01:56:40;18.67;;;16.80;;
52210;SDS011;38179;52.756;6.906;2022-10-22T02:04:48;18.88;;;17.20;;
52210;SDS011;38179;52.756;6.906;2022-10-22T02:07:20;18.92;;;17.13;;
52210;SDS011;38179;52.756;6.906;2022-10-22T02:09:49;19.25;;;16.83;;
52210;SDS011;38179;52.756;6.906;2022-10-22T02:12:17;18.80;;;16.98;;
52210;SDS011;38179;52.756;6.906;2022-10-22T02:14:45;20.23;;;18.23;;
52210;SDS011;38179;52.756;6.906;2022-10-22T02:17:14;19.83;;;17.38;;
52210;SDS011;38179;52.756;6.906;2022-10-22T02:19:46;20.23;;;18.05;;
52210;SDS011;38179;52.756;6.906;2022-10-22T02:22:27;18.40;;;16.70;;
52210;SDS011;38179;52.756;6.906;2022-10-22T02:24:54;18.98;;;17.38;;
52210;SDS011;38179;52.756;6.906;2022-10-22T02:30:27;19.40;;;17.60;;
52210;SDS011;38179;52.756;6.906;2022-10-22T02:35:58;20.45;;;17.70;;
52210;SDS011;38179;52.756;6.906;2022-10-22T02:38:26;19.25;;;17.55;;
52210;SDS011;38179;52.756;6.906;2022-10-22T02:40:53;19.95;;;17.25;;
52210;SDS011;38179;52.756;6.906;2022-10-22T02:43:19;19.02;;;17.33;;
52210;SDS011;38179;52.756;6.906;2022-10-22T02:45:48;18.67;;;16.67;;
52210;SDS011;38179;52.756;6.906;2022-10-22T02:48:13;19.08;;;17.33;;
52210;SDS011;38179;52.756;6.906;2022-10-22T02:50:39;21.25;;;18.45;;
52210;SDS011;38179;52.756;6.906;2022-10-22T02:53:05;18.33;;;16.77;;
52210;SDS011;38179;52.756;6.906;2022-10-22T02:55:31;18.02;;;16.52;;
52210;SDS011;38179;52.756;6.906;2022-10-22T02:57:57;19.63;;;17.85;;
52210;SDS011;38179;52.756;6.906;2022-10-22T03:00:23;18.25;;;16.58;;
52210;SDS011;38179;52.756;6.906;2022-10-22T03:02:49;18.20;;;16.70;;
52210;SDS011;38179;52.756;6.906;2022-10-22T03:05:15;17.17;;;15.48;;
52210;SDS011;38179;52.756;6.906;2022-10-22T03:07:40;17.85;;;16.25;;
52210;SDS011;38179;52.756;6.906;2022-10-22T03:10:06;19.05;;;17.10;;
52210;SDS011;38179;52.756;6.906;2022-10-22T03:12:32;19.08;;;16.15;;
52210;SDS011;38179;52.756;6.906;2022-10-22T03:14:58;18.55;;;16.80;;
52210;SDS011;38179;52.756;6.906;2022-10-22T03:17:24;19.33;;;17.60;;
52210;SDS011;38179;52.756;6.906;2022-10-22T03:19:50;17.75;;;16.25;;
52210;SDS011;38179;52.756;6.906;2022-10-22T03:22:23;17.65;;;16.15;;
52210;SDS011;38179;52.756;6.906;2022-10-22T03:24:54;17.60;;;15.77;;
52210;SDS011;38179;52.756;6.906;2022-10-22T03:27:22;56.38;;;16.42;;
52210;SDS011;38179;52.756;6.906;2022-10-22T03:29:50;19.63;;;15.23;;
52210;SDS011;38179;52.756;6.906;2022-10-22T03:32:16;18.90;;;17.08;;
52210;SDS011;38179;52.756;6.906;2022-10-22T03:34:43;19.63;;;17.63;;
52210;SDS011;38179;52.756;6.906;2022-10-22T03:37:09;19.70;;;17.90;;
52210;SDS011;38179;52.756;6.906;2022-10-22T03:39:35;20.27;;;18.05;;
52210;SDS011;38179;52.756;6.906;2022-10-22T03:42:02;19.77;;;17.73;;
52210;SDS011;38179;52.756;6.906;2022-10-22T03:44:29;19.63;;;17.92;;
52210;SDS011;38179;52.756;6.906;2022-10-22T03:46:56;20.20;;;18.25;;
52210;SDS011;38179;52.756;6.906;2022-10-22T03:49:21;21.52;;;19.42;;
52210;SDS011;38179;52.756;6.906;2022-10-22T03:51:47;20.52;;;18.42;;
52210;SDS011;38179;52.756;6.906;2022-10-22T03:54:14;20.58;;;18.67;;
52210;SDS011;38179;52.756;6.906;2022-10-22T03:56:40;22.42;;;20.30;;
52210;SDS011;38179;52.756;6.906;2022-10-22T03:59:06;20.90;;;18.85;;
52210;SDS011;38179;52.756;6.906;2022-10-22T04:01:32;19.95;;;18.20;;
52210;SDS011;38179;52.756;6.906;2022-10-22T04:03:58;20.25;;;18.30;;
52210;SDS011;38179;52.756;6.906;2022-10-22T04:06:24;20.30;;;18.17;;
52210;SDS011;38179;52.756;6.906;2022-10-22T04:08:50;18.80;;;17.15;;
52210;SDS011;38179;52.756;6.906;2022-10-22T04:11:16;19.38;;;17.60;;
52210;SDS011;38179;52.756;6.906;2022-10-22T04:13:42;19.70;;;18.05;;
52210;SDS011;38179;52.756;6.906;2022-10-22T04:16:09;20.70;;;18.77;;
52210;SDS011;38179;52.756;6.906;2022-10-22T04:18:37;19.33;;;17.48;;
52210;SDS011;38179;52.756;6.906;2022-10-22T04:21:04;19.98;;;17.88;;
52210;SDS011;38179;52.756;6.906;2022-10-22T04:23:32;18.42;;;16.92;;
52210;SDS011;38179;52.756;6.906;2022-10-22T04:25:59;18.98;;;17.33;;
52210;SDS011;38179;52.756;6.906;2022-10-22T04:28:26;20.20;;;18.50;;
52210;SDS011;38179;52.756;6.906;2022-10-22T04:30:52;20.13;;;18.23;;
52210;SDS011;38179;52.756;6.906;2022-10-22T04:33:18;20.00;;;18.20;;
52210;SDS011;38179;52.756;6.906;2022-10-22T04:35:44;18.50;;;16.90;;
52210;SDS011;38179;52.756;6.906;2022-10-22T04:38:10;18.50;;;16.90;;
52210;SDS011;38179;52.756;6.906;2022-10-22T04:40:36;20.15;;;18.35;;
52210;SDS011;38179;52.756;6.906;2022-10-22T04:43:02;19.98;;;18.15;;
52210;SDS011;38179;52.756;6.906;2022-10-22T04:45:28;19.23;;;17.33;;
52210;SDS011;38179;52.756;6.906;2022-10-22T04:47:54;18.35;;;16.70;;
52210;SDS011;38179;52.756;6.906;2022-10-22T04:50:20;18.30;;;16.70;;
52210;SDS011;38179;52.756;6.906;2022-10-22T04:52:46;19.50;;;17.50;;
52210;SDS011;38179;52.756;6.906;2022-10-22T04:55:12;18.13;;;16.50;;
52210;SDS011;38179;52.756;6.906;2022-10-22T04:57:38;19.45;;;17.70;;
52210;SDS011;38179;52.756;6.906;2022-10-22T05:00:04;18.40;;;16.80;;
52210;SDS011;38179;52.756;6.906;2022-10-22T05:02:30;18.08;;;16.40;;
52210;SDS011;38179;52.756;6.906;2022-10-22T05:04:56;18.13;;;16.52;;
52210;SDS011;38179;52.756;6.906;2022-10-22T05:07:22;19.25;;;17.35;;
52210;SDS011;38179;52.756;6.906;2022-10-22T05:09:48;19.80;;;17.92;;
52210;SDS011;38179;52.756;6.906;2022-10-22T05:12:14;18.75;;;17.05;;
52210;SDS011;38179;52.756;6.906;2022-10-22T05:14:40;18.63;;;17.00;;
52210;SDS011;38179;52.756;6.906;2022-10-22T05:17:05;19.55;;;17.75;;
52210;SDS011;38179;52.756;6.906;2022-10-22T05:19:31;19.17;;;17.42;;
52210;SDS011;38179;52.756;6.906;2022-10-22T05:21:59;20.52;;;18.40;;
52210;SDS011;38179;52.756;6.906;2022-10-22T05:24:26;19.27;;;17.45;;
52210;SDS011;38179;52.756;6.906;2022-10-22T05:26:56;20.25;;;18.35;;
52210;SDS011;38179;52.756;6.906;2022-10-22T05:29:23;20.13;;;18.40;;
52210;SDS011;38179;52.756;6.906;2022-10-22T05:31:49;19.90;;;17.73;;
52210;SDS011;38179;52.756;6.906;2022-10-22T05:34:16;21.50;;;19.40;;
52210;SDS011;38179;52.756;6.906;2022-10-22T05:36:42;20.05;;;18.25;;
52210;SDS011;38179;52.756;6.906;2022-10-22T05:39:08;20.27;;;18.25;;
52210;SDS011;38179;52.756;6.906;2022-10-22T05:41:34;21.55;;;19.45;;
52210;SDS011;38179;52.756;6.906;2022-10-22T05:44:01;24.15;;;21.75;;
52210;SDS011;38179;52.756;6.906;2022-10-22T05:46:28;25.27;;;20.67;;
52210;SDS011;38179;52.756;6.906;2022-10-22T05:49:04;25.02;;;20.27;;
52210;SDS011;38179;52.756;6.906;2022-10-22T05:51:32;24.92;;;21.13;;
52210;SDS011;38179;52.756;6.906;2022-10-22T05:54:00;23.77;;;21.38;;
52210;SDS011;38179;52.756;6.906;2022-10-22T05:56:27;23.83;;;21.30;;
52210;SDS011;38179;52.756;6.906;2022-10-22T05:58:56;22.65;;;20.30;;
52210;SDS011;38179;52.756;6.906;2022-10-22T06:01:26;21.23;;;19.20;;
52210;SDS011;38179;52.756;6.906;2022-10-22T06:03:57;24.23;;;21.15;;
52210;SDS011;38179;52.756;6.906;2022-10-22T06:06:26;23.10;;;20.70;;
52210;SDS011;38179;52.756;6.906;2022-10-22T06:11:52;21.25;;;19.15;;
52210;SDS011;38179;52.756;6.906;2022-10-22T06:14:19;22.77;;;19.60;;
52210;SDS011;38179;52.756;6.906;2022-10-22T06:16:45;22.10;;;19.95;;
52210;SDS011;38179;52.756;6.906;2022-10-22T06:19:12;24.98;;;21.15;;
52210;SDS011;38179;52.756;6.906;2022-10-22T06:21:39;21.65;;;19.35;;
52210;SDS011;38179;52.756;6.906;2022-10-22T06:24:06;22.73;;;19.75;;
52210;SDS011;38179;52.756;6.906;2022-10-22T06:26:33;24.33;;;20.08;;
52210;SDS011;38179;52.756;6.906;2022-10-22T06:28:59;24.67;;;19.95;;
52210;SDS011;38179;52.756;6.906;2022-10-22T06:31:25;22.48;;;19.88;;
52210;SDS011;38179;52.756;6.906;2022-10-22T06:33:53;25.40;;;20.33;;
52210;SDS011;38179;52.756;6.906;2022-10-22T06:36:21;27.85;;;20.63;;
52210;SDS011;38179;52.756;6.906;2022-10-22T06:38:52;22.15;;;19.75;;
52210;SDS011;38179;52.756;6.906;2022-10-22T06:41:19;22.50;;;20.10;;
52210;SDS011;38179;52.756;6.906;2022-10-22T06:43:45;21.63;;;19.30;;
52210;SDS011;38179;52.756;6.906;2022-10-22T06:46:11;27.67;;;20.38;;
52210;SDS011;38179;52.756;6.906;2022-10-22T06:48:42;21.30;;;19.05;;
52210;SDS011;38179;52.756;6.906;2022-10-22T06:51:11;23.95;;;19.58;;
52210;SDS011;38179;52.756;6.906;2022-10-22T06:56:07;21.17;;;19.08;;
52210;SDS011;38179;52.756;6.906;2022-10-22T06:58:35;24.40;;;19.90;;
52210;SDS011;38179;52.756;6.906;2022-10-22T07:01:03;23.92;;;18.88;;
52210;SDS011;38179;52.756;6.906;2022-10-22T07:03:31;21.58;;;19.38;;
52210;SDS011;38179;52.756;6.906;2022-10-22T07:05:58;22.48;;;20.13;;
52210;SDS011;38179;52.756;6.906;2022-10-22T07:08:25;22.00;;;19.55;;
52210;SDS011;38179;52.756;6.906;2022-10-22T07:10:51;21.85;;;19.60;;
52210;SDS011;38179;52.756;6.906;2022-10-22T07:13:17;23.40;;;19.58;;
52210;SDS011;38179;52.756;6.906;2022-10-22T07:15:42;23.45;;;19.52;;
52210;SDS011;38179;52.756;6.906;2022-10-22T07:18:08;21.10;;;18.95;;
52210;SDS011;38179;52.756;6.906;2022-10-22T07:20:34;23.42;;;19.10;;
52210;SDS011;38179;52.756;6.906;2022-10-22T07:23:00;20.95;;;18.58;;
52210;SDS011;38179;52.756;6.906;2022-10-22T07:25:26;24.90;;;19.25;;
52210;SDS011;38179;52.756;6.906;2022-10-22T07:27:52;23.55;;;18.50;;
52210;SDS011;38179;52.756;6.906;2022-10-22T07:30:17;21.85;;;19.40;;
52210;SDS011;38179;52.756;6.906;2022-10-22T07:32:44;22.02;;;19.45;;
52210;SDS011;38179;52.756;6.906;2022-10-22T07:35:10;23.00;;;19.48;;
52210;SDS011;38179;52.756;6.906;2022-10-22T07:37:36;20.95;;;18.70;;
52210;SDS011;38179;52.756;6.906;2022-10-22T07:40:02;21.35;;;19.13;;
52210;SDS011;38179;52.756;6.906;2022-10-22T07:42:28;21.15;;;18.13;;
52210;SDS011;38179;52.756;6.906;2022-10-22T07:44:54;20.20;;;18.13;;
52210;SDS011;38179;52.756;6.906;2022-10-22T07:47:20;25.38;;;18.30;;
52210;SDS011;38179;52.756;6.906;2022-10-22T07:49:46;22.23;;;18.13;;
52210;SDS011;38179;52.756;6.906;2022-10-22T07:52:11;22.75;;;18.55;;
52210;SDS011;38179;52.756;6.906;2022-10-22T07:54:37;20.05;;;17.83;;
52210;SDS011;38179;52.756;6.906;2022-10-22T07:57:03;20.17;;;17.88;;
52210;SDS011;38179;52.756;6.906;2022-10-22T07:59:29;22.10;;;18.75;;
52210;SDS011;38179;52.756;6.906;2022-10-22T08:01:55;19.83;;;17.73;;
52210;SDS011;38179;52.756;6.906;2022-10-22T08:04:20;20.23;;;18.13;;
52210;SDS011;38179;52.756;6.906;2022-10-22T08:06:46;21.23;;;18.05;;
52210;SDS011;38179;52.756;6.906;2022-10-22T08:09:12;19.80;;;17.73;;
52210;SDS011;38179;52.756;6.906;2022-10-22T08:11:38;23.02;;;17.98;;
52210;SDS011;38179;52.756;6.906;2022-10-22T08:14:04;20.98;;;17.10;;
52210;SDS011;38179;52.756;6.906;2022-10-22T08:16:30;19.73;;;17.67;;
52210;SDS011;38179;52.756;6.906;2022-10-22T08:18:56;24.15;;;17.77;;
52210;SDS011;38179;52.756;6.906;2022-10-22T08:21:21;24.20;;;18.05;;
52210;SDS011;38179;52.756;6.906;2022-10-22T08:23:47;21.90;;;16.52;;
52210;SDS011;38179;52.756;6.906;2022-10-22T08:26:13;20.90;;;17.77;;
52210;SDS011;38179;52.756;6.906;2022-10-22T08:28:39;19.23;;;16.70;;
52210;SDS011;38179;52.756;6.906;2022-10-22T08:31:05;22.85;;;16.85;;
52210;SDS011;38179;52.756;6.906;2022-10-22T08:33:33;24.70;;;17.17;;
52210;SDS011;38179;52.756;6.906;2022-10-22T08:35:59;19.05;;;16.38;;
52210;SDS011;38179;52.756;6.906;2022-10-22T08:38:25;19.48;;;17.55;;
52210;SDS011;38179;52.756;6.906;2022-10-22T08:40:52;21.85;;;17.80;;
52210;SDS011;38179;52.756;6.906;2022-10-22T08:49:00;20.33;;;17.92;;
52210;SDS011;38179;52.756;6.906;2022-10-22T08:51:37;24.75;;;17.73;;
52210;SDS011;38179;52.756;6.906;2022-10-22T08:54:17;19.63;;;17.73;;
52210;SDS011;38179;52.756;6.906;2022-10-22T09:02:02;21.95;;;17.35;;
52210;SDS011;38179;52.756;6.906;2022-10-22T09:04:42;21.30;;;17.63;;
52210;SDS011;38179;52.756;6.906;2022-10-22T09:07:14;19.88;;;17.80;;
52210;SDS011;38179;52.756;6.906;2022-10-22T09:12:15;19.80;;;17.70;;
52210;SDS011;38179;52.756;6.906;2022-10-22T09:14:42;19.33;;;17.42;;
52210;SDS011;38179;52.756;6.906;2022-10-22T09:17:44;18.85;;;16.98;;
52210;SDS011;38179;52.756;6.906;2022-10-22T09:20:11;19.50;;;17.40;;
52210;SDS011;38179;52.756;6.906;2022-10-22T09:23:36;18.95;;;16.55;;
52210;SDS011;38179;52.756;6.906;2022-10-22T09:25:45;19.33;;;17.45;;
52210;SDS011;38179;52.756;6.906;2022-10-22T09:28:13;19.25;;;17.02;;
52210;SDS011;38179;52.756;6.906;2022-10-22T09:30:39;21.52;;;16.75;;
52210;SDS011;38179;52.756;6.906;2022-10-22T09:35:50;20.85;;;17.85;;
52210;SDS011;38179;52.756;6.906;2022-10-22T09:38:19;21.20;;;17.52;;
52210;SDS011;38179;52.756;6.906;2022-10-22T09:40:49;20.27;;;18.17;;
52210;SDS011;38179;52.756;6.906;2022-10-22T09:43:17;19.48;;;17.52;;
52210;SDS011;38179;52.756;6.906;2022-10-22T09:45:43;19.35;;;17.45;;
52210;SDS011;38179;52.756;6.906;2022-10-22T09:48:16;20.25;;;17.80;;
52210;SDS011;38179;52.756;6.906;2022-10-22T09:53:42;20.13;;;17.85;;
52210;SDS011;38179;52.756;6.906;2022-10-22T09:58:51;19.38;;;16.98;;
52210;SDS011;38179;52.756;6.906;2022-10-22T10:01:18;18.58;;;16.40;;
52210;SDS011;38179;52.756;6.906;2022-10-22T10:03:49;18.75;;;16.95;;
52210;SDS011;38179;52.756;6.906;2022-10-22T10:06:19;24.13;;;17.23;;
52210;SDS011;38179;52.756;6.906;2022-10-22T10:08:47;20.63;;;16.42;;
52210;SDS011;38179;52.756;6.906;2022-10-22T10:11:27;20.15;;;17.20;;
52210;SDS011;38179;52.756;6.906;2022-10-22T10:14:20;18.55;;;16.67;;
52210;SDS011;38179;52.756;6.906;2022-10-22T10:17:21;18.63;;;16.33;;
52210;SDS011;38179;52.756;6.906;2022-10-22T10:28:15;24.05;;;17.08;;
52210;SDS011;38179;52.756;6.906;2022-10-22T10:34:08;20.30;;;16.40;;
52210;SDS011;38179;52.756;6.906;2022-10-22T10:44:50;20.83;;;16.70;;
52210;SDS011;38179;52.756;6.906;2022-10-22T10:47:33;20.55;;;17.70;;
52210;SDS011;38179;52.756;6.906;2022-10-22T10:52:44;19.13;;;17.20;;
52210;SDS011;38179;52.756;6.906;2022-10-22T10:55:29;18.70;;;16.67;;
52210;SDS011;38179;52.756;6.906;2022-10-22T10:58:20;18.17;;;16.27;;
52210;SDS011;38179;52.756;6.906;2022-10-22T11:00:57;19.10;;;17.30;;
52210;SDS011;38179;52.756;6.906;2022-10-22T11:06:34;21.98;;;17.58;;
52210;SDS011;38179;52.756;6.906;2022-10-22T11:09:47;21.52;;;17.73;;
52210;SDS011;38179;52.756;6.906;2022-10-22T11:11:58;20.05;;;16.35;;
52210;SDS011;38179;52.756;6.906;2022-10-22T11:14:29;18.85;;;16.88;;
52210;SDS011;38179;52.756;6.906;2022-10-22T11:17:07;19.35;;;17.33;;
52210;SDS011;38179;52.756;6.906;2022-10-22T11:22:28;19.67;;;17.55;;
52210;SDS011;38179;52.756;6.906;2022-10-22T11:25:11;19.25;;;17.45;;
52210;SDS011;38179;52.756;6.906;2022-10-22T11:32:40;20.58;;;18.33;;
52210;SDS011;38179;52.756;6.906;2022-10-22T11:35:21;19.63;;;17.52;;
52210;SDS011;38179;52.756;6.906;2022-10-22T11:37:50;21.23;;;17.67;;
52210;SDS011;38179;52.756;6.906;2022-10-22T11:40:20;24.13;;;17.90;;
52210;SDS011;38179;52.756;6.906;2022-10-22T11:43:08;19.15;;;17.25;;
52210;SDS011;38179;52.756;6.906;2022-10-22T11:45:53;19.45;;;17.38;;
52210;SDS011;38179;52.756;6.906;2022-10-22T11:48:36;20.85;;;18.42;;
52210;SDS011;38179;52.756;6.906;2022-10-22T11:51:03;19.55;;;17.67;;
52210;SDS011;38179;52.756;6.906;2022-10-22T11:53:53;19.65;;;17.85;;
52210;SDS011;38179;52.756;6.906;2022-10-22T11:56:22;20.27;;;18.23;;
52210;SDS011;38179;52.756;6.906;2022-10-22T12:01:22;21.90;;;18.90;;
52210;SDS011;38179;52.756;6.906;2022-10-22T12:04:13;22.20;;;17.98;;
52210;SDS011;38179;52.756;6.906;2022-10-22T12:06:57;20.38;;;18.27;;
52210;SDS011;38179;52.756;6.906;2022-10-22T12:09:27;19.95;;;17.83;;
52210;SDS011;38179;52.756;6.906;2022-10-22T12:12:33;20.88;;;18.60;;
52210;SDS011;38179;52.756;6.906;2022-10-22T12:14:52;24.05;;;17.98;;
52210;SDS011;38179;52.756;6.906;2022-10-22T12:17:20;19.50;;;17.65;;
52210;SDS011;38179;52.756;6.906;2022-10-22T12:20:01;20.38;;;18.33;;
52210;SDS011;38179;52.756;6.906;2022-10-22T12:22:36;19.67;;;17.92;;
52210;SDS011;38179;52.756;6.906;2022-10-22T12:25:16;21.05;;;18.77;;
52210;SDS011;38179;52.756;6.906;2022-10-22T12:27:49;20.33;;;18.33;;
52210;SDS011;38179;52.756;6.906;2022-10-22T12:30:24;26.65;;;18.42;;
52210;SDS011;38179;52.756;6.906;2022-10-22T12:32:56;21.13;;;18.55;;
52210;SDS011;38179;52.756;6.906;2022-10-22T12:35:26;19.17;;;17.23;;
52210;SDS011;38179;52.756;6.906;2022-10-22T12:37:55;19.60;;;17.70;;
52210;SDS011;38179;52.756;6.906;2022-10-22T12:40:43;19.65;;;17.67;;
52210;SDS011;38179;52.756;6.906;2022-10-22T12:43:12;19.52;;;17.60;;
52210;SDS011;38179;52.756;6.906;2022-10-22T12:45:40;19.15;;;17.15;;
52210;SDS011;38179;52.756;6.906;2022-10-22T12:48:16;20.75;;;17.45;;
52210;SDS011;38179;52.756;6.906;2022-10-22T12:50:48;18.83;;;17.00;;
52210;SDS011;38179;52.756;6.906;2022-10-22T12:55:45;21.23;;;18.58;;
52210;SDS011;38179;52.756;6.906;2022-10-22T12:58:17;18.38;;;16.88;;
52210;SDS011;38179;52.756;6.906;2022-10-22T13:00:46;19.70;;;16.60;;
52210;SDS011;38179;52.756;6.906;2022-10-22T13:03:29;19.40;;;17.50;;
52210;SDS011;38179;52.756;6.906;2022-10-22T13:08:44;17.40;;;15.90;;
52210;SDS011;38179;52.756;6.906;2022-10-22T13:11:38;18.98;;;16.98;;
52210;SDS011;38179;52.756;6.906;2022-10-22T13:17:06;19.23;;;17.33;;
52210;SDS011;38179;52.756;6.906;2022-10-22T13:24:50;18.02;;;16.15;;
52210;SDS011;38179;52.756;6.906;2022-10-22T13:27:17;17.70;;;16.10;;
52210;SDS011;38179;52.756;6.906;2022-10-22T13:29:43;19.23;;;16.85;;
52210;SDS011;38179;52.756;6.906;2022-10-22T13:32:20;18.88;;;16.83;;
52210;SDS011;38179;52.756;6.906;2022-10-22T13:34:50;18.90;;;16.85;;
52210;SDS011;38179;52.756;6.906;2022-10-22T13:37:15;18.17;;;16.30;;
52210;SDS011;38179;52.756;6.906;2022-10-22T13:39:41;18.80;;;16.90;;
52210;SDS011;38179;52.756;6.906;2022-10-22T13:42:11;20.13;;;16.48;;
52210;SDS011;38179;52.756;6.906;2022-10-22T13:44:37;21.20;;;17.17;;
52210;SDS011;38179;52.756;6.906;2022-10-22T13:47:03;21.83;;;16.48;;
52210;SDS011;38179;52.756;6.906;2022-10-22T13:49:41;20.67;;;16.42;;
52210;SDS011;38179;52.756;6.906;2022-10-22T13:52:10;17.98;;;16.33;;
52210;SDS011;38179;52.756;6.906;2022-10-22T13:54:46;22.25;;;16.83;;
52210;SDS011;38179;52.756;6.906;2022-10-22T13:57:12;19.33;;;17.33;;
52210;SDS011;38179;52.756;6.906;2022-10-22T13:59:38;18.60;;;16.92;;
52210;SDS011;38179;52.756;6.906;2022-10-22T14:02:08;18.17;;;16.48;;
52210;SDS011;38179;52.756;6.906;2022-10-22T14:04:36;19.63;;;17.02;;
52210;SDS011;38179;52.756;6.906;2022-10-22T14:07:22;18.17;;;16.27;;
52210;SDS011;38179;52.756;6.906;2022-10-22T14:09:48;19.58;;;15.85;;
52210;SDS011;38179;52.756;6.906;2022-10-22T14:12:15;21.10;;;16.40;;
52210;SDS011;38179;52.756;6.906;2022-10-22T14:14:41;17.75;;;16.00;;
52210;SDS011;38179;52.756;6.906;2022-10-22T14:17:09;19.27;;;15.25;;
52210;SDS011;38179;52.756;6.906;2022-10-22T14:19:41;16.92;;;15.40;;
52210;SDS011;38179;52.756;6.906;2022-10-22T14:22:15;18.35;;;16.27;;
52210;SDS011;38179;52.756;6.906;2022-10-22T14:24:43;17.75;;;16.08;;
52210;SDS011;38179;52.756;6.906;2022-10-22T14:27:10;16.98;;;15.25;;
52210;SDS011;38179;52.756;6.906;2022-10-22T14:29:37;17.97;;;16.07;;
52210;SDS011;38179;52.756;6.906;2022-10-22T14:32:14;17.08;;;14.68;;
52210;SDS011;38179;52.756;6.906;2022-10-22T14:34:41;17.55;;;15.73;;
52210;SDS011;38179;52.756;6.906;2022-10-22T14:37:12;17.13;;;15.48;;
52210;SDS011;38179;52.756;6.906;2022-10-22T14:39:44;16.90;;;15.20;;
52210;SDS011;38179;52.756;6.906;2022-10-22T14:42:15;16.70;;;15.27;;
52210;SDS011;38179;52.756;6.906;2022-10-22T14:44:42;17.05;;;15.48;;
52210;SDS011;38179;52.756;6.906;2022-10-22T14:47:08;17.08;;;15.38;;
52210;SDS011;38179;52.756;6.906;2022-10-22T14:49:34;17.02;;;15.38;;
52210;SDS011;38179;52.756;6.906;2022-10-22T14:52:00;16.75;;;15.02;;
52210;SDS011;38179;52.756;6.906;2022-10-22T14:54:26;17.63;;;15.80;;
52210;SDS011;38179;52.756;6.906;2022-10-22T14:56:52;16.98;;;15.27;;
52210;SDS011;38179;52.756;6.906;2022-10-22T14:59:17;15.50;;;14.15;;
52210;SDS011;38179;52.756;6.906;2022-10-22T15:01:43;17.35;;;15.45;;
52210;SDS011;38179;52.756;6.906;2022-10-22T15:04:09;16.20;;;14.80;;
52210;SDS011;38179;52.756;6.906;2022-10-22T15:06:35;17.17;;;14.82;;
52210;SDS011;38179;52.756;6.906;2022-10-22T15:09:01;16.85;;;14.98;;
52210;SDS011;38179;52.756;6.906;2022-10-22T15:11:27;17.50;;;14.95;;
52210;SDS011;38179;52.756;6.906;2022-10-22T15:13:53;16.08;;;14.55;;
52210;SDS011;38179;52.756;6.906;2022-10-22T15:16:19;17.25;;;14.43;;
52210;SDS011;38179;52.756;6.906;2022-10-22T15:18:45;16.73;;;14.95;;
52210;SDS011;38179;52.756;6.906;2022-10-22T15:21:13;19.65;;;15.25;;
52210;SDS011;38179;52.756;6.906;2022-10-22T15:26:06;17.70;;;14.98;;
52210;SDS011;38179;52.756;6.906;2022-10-22T15:28:33;17.02;;;15.07;;
52210;SDS011;38179;52.756;6.906;2022-10-22T15:31:01;17.43;;;14.20;;
52210;SDS011;38179;52.756;6.906;2022-10-22T15:33:28;19.20;;;14.77;;
52210;SDS011;38179;52.756;6.906;2022-10-22T15:35:54;19.10;;;15.25;;
52210;SDS011;38179;52.756;6.906;2022-10-22T15:38:28;18.35;;;15.48;;
52210;SDS011;38179;52.756;6.906;2022-10-22T15:41:00;16.42;;;14.73;;
52210;SDS011;38179;52.756;6.906;2022-10-22T15:43:27;17.27;;;14.50;;
52210;SDS011;38179;52.756;6.906;2022-10-22T15:46:03;16.45;;;14.65;;
52210;SDS011;38179;52.756;6.906;2022-10-22T15:48:35;15.85;;;14.18;;
52210;SDS011;38179;52.756;6.906;2022-10-22T15:51:12;16.65;;;14.80;;
52210;SDS011;38179;52.756;6.906;2022-10-22T15:53:40;16.60;;;14.75;;
52210;SDS011;38179;52.756;6.906;2022-10-22T15:56:08;16.58;;;14.68;;
52210;SDS011;38179;52.756;6.906;2022-10-22T15:58:36;17.55;;;15.60;;
52210;SDS011;38179;52.756;6.906;2022-10-22T16:01:09;16.52;;;14.85;;
52210;SDS011;38179;52.756;6.906;2022-10-22T16:03:36;17.90;;;15.07;;
52210;SDS011;38179;52.756;6.906;2022-10-22T16:06:02;17.77;;;14.90;;
52210;SDS011;38179;52.756;6.906;2022-10-22T16:08:30;15.85;;;14.32;;
52210;SDS011;38179;52.756;6.906;2022-10-22T16:10:56;18.38;;;15.25;;
52210;SDS011;38179;52.756;6.906;2022-10-22T16:13:23;16.75;;;14.57;;
52210;SDS011;38179;52.756;6.906;2022-10-22T16:15:54;17.73;;;14.43;;
52210;SDS011;38179;52.756;6.906;2022-10-22T16:18:20;16.73;;;15.05;;
52210;SDS011;38179;52.756;6.906;2022-10-22T16:20:47;19.77;;;14.93;;
52210;SDS011;38179;52.756;6.906;2022-10-22T16:23:13;17.80;;;15.05;;
52210;SDS011;38179;52.756;6.906;2022-10-22T16:25:43;16.73;;;14.95;;
52210;SDS011;38179;52.756;6.906;2022-10-22T16:28:10;16.38;;;14.82;;